Jacksonville, FL

7:30 AM EST on January 31, 2015 (GMT -0500)
Jacksonville International | Change Station
CLOSE
Current Station
Airport
Location: Jacksonville,
Elevation: 30 ft
Nearby Weather Stations

Elev 30 ft 30.49 °N, 81.69 °W | Updated 34 minutes ago

Partly Cloudy
Partly Cloudy
36 °F
Feels Like 32 °F
N
5
Wind Variable Wind from North

Today
High -- | Low -- °F
--% Chance of Precip.
Yesterday
High -- | Low -- °F
Precip. -- in
7:18 AM 6:02 PM
Waxing Gibbous, 89% visible
Pressure 30.31 in
Visibility 10.0 miles
Clouds Mostly Cloudy 25000 ft
Windchill 32 °F
Dew Point 32 °F
Humidity 86%
Rainfall 0.00 in
Snow Depth Not available.
UV 0 out of 12
Pollen 6.70 out of 12
Air Quality Not available.
Flu Activity Not available.
METAR KJAX 311156Z 01004KT 10SM BKN250 02/00 A3031 RMK AO2 SLP263 T00220000 10067 20022 53007

More Conditions Fewer Conditions

Pressure 30.31 in
Visibility 10.0 miles
Clouds Mostly Cloudy 25000 ft
Windchill 32 °F
Dew Point 32 °F
Humidity 86%
Rainfall 0.00 in
Snow Depth Not available.
UV 0 out of 12
Pollen 6.70 out of 12
Air Quality Not available.
Flu Activity Not available.
METAR KJAX 311156Z 01004KT 10SM BKN250 02/00 A3031 RMK AO2 SLP263 T00220000 10067 20022 53007

More Conditions Fewer Conditions

10-Day Weather Forecast

Almanac

Astronomy

Jan. 31, 2015 Rise Set
Actual Time
Civil Twilight
Nautical Twilight
Astronomical Twilight
Moon
Length of Visible Light
Length of Day
Tomorrow will be .
, % of the Moon is Illuminated

Today's Extremes

State Highs State Lows

Community

WunderPhotos

Upload Photos

1,792,039 photos uploaded!

WunderBlogs® & News

Nearby

Air Quality

  Air Quality AQ Index Pollutant
Not available.

Snow Depth

Station Depth Elevation

Earthquake Activity

City Distance Mag. Time & Date
Minimum magnitude displayed is 2.5.

Coastal Water Temperatures

Place Temperature

Nearby Weather Stations